sensor_id;sensor_type;location;lat;lon;timestamp;P1;durP1;ratioP1;P2;durP2;ratioP2
59434;SDS011;45241;49.768;8.636;2022-12-20T09:22:19;32.65;;;17.65;;
59434;SDS011;45241;49.768;8.636;2022-12-20T09:24:44;24.35;;;13.82;;
59434;SDS011;45241;49.768;8.636;2022-12-20T09:27:10;21.52;;;13.85;;
59434;SDS011;45241;49.768;8.636;2022-12-20T09:29:35;28.20;;;15.82;;
59434;SDS011;45241;49.768;8.636;2022-12-20T09:32:01;33.03;;;17.20;;
59434;SDS011;45241;49.768;8.636;2022-12-20T09:34:26;30.92;;;16.15;;
59434;SDS011;45241;49.768;8.636;2022-12-20T09:36:51;34.42;;;18.40;;
59434;SDS011;45241;49.768;8.636;2022-12-20T09:39:17;32.25;;;18.20;;
59434;SDS011;45241;49.768;8.636;2022-12-20T09:41:43;33.33;;;18.23;;
59434;SDS011;45241;49.768;8.636;2022-12-20T09:46:51;36.25;;;19.33;;
59434;SDS011;45241;49.768;8.636;2022-12-20T09:49:19;34.10;;;19.17;;
59434;SDS011;45241;49.768;8.636;2022-12-20T10:00:12;34.75;;;19.23;;
59434;SDS011;45241;49.768;8.636;2022-12-20T10:02:38;35.03;;;20.33;;
59434;SDS011;45241;49.768;8.636;2022-12-20T10:05:05;34.30;;;19.20;;
59434;SDS011;45241;49.768;8.636;2022-12-20T10:07:38;34.70;;;19.65;;
59434;SDS011;45241;49.768;8.636;2022-12-20T10:13:03;37.00;;;18.33;;
59434;SDS011;45241;49.768;8.636;2022-12-20T10:15:44;33.03;;;18.48;;
59434;SDS011;45241;49.768;8.636;2022-12-20T10:18:39;36.63;;;19.13;;
59434;SDS011;45241;49.768;8.636;2022-12-20T10:21:18;38.75;;;19.13;;
59434;SDS011;45241;49.768;8.636;2022-12-20T10:23:57;38.17;;;20.52;;
59434;SDS011;45241;49.768;8.636;2022-12-20T10:26:25;35.30;;;19.65;;
59434;SDS011;45241;49.768;8.636;2022-12-20T10:28:51;31.52;;;18.85;;
59434;SDS011;45241;49.768;8.636;2022-12-20T10:31:17;37.08;;;19.65;;
59434;SDS011;45241;49.768;8.636;2022-12-20T10:33:43;36.75;;;20.33;;
59434;SDS011;45241;49.768;8.636;2022-12-20T10:36:16;38.78;;;19.00;;
59434;SDS011;45241;49.768;8.636;2022-12-20T10:38:42;39.92;;;20.33;;
59434;SDS011;45241;49.768;8.636;2022-12-20T10:41:12;34.58;;;18.63;;
59434;SDS011;45241;49.768;8.636;2022-12-20T10:44:18;33.50;;;18.25;;
59434;SDS011;45241;49.768;8.636;2022-12-20T10:46:45;37.03;;;19.08;;
59434;SDS011;45241;49.768;8.636;2022-12-20T10:49:27;35.78;;;19.45;;
59434;SDS011;45241;49.768;8.636;2022-12-20T10:51:58;35.35;;;19.45;;
59434;SDS011;45241;49.768;8.636;2022-12-20T10:54:44;31.63;;;17.60;;
59434;SDS011;45241;49.768;8.636;2022-12-20T10:57:19;33.47;;;17.80;;
59434;SDS011;45241;49.768;8.636;2022-12-20T10:59:50;28.80;;;17.13;;
59434;SDS011;45241;49.768;8.636;2022-12-20T11:02:25;30.95;;;18.50;;
59434;SDS011;45241;49.768;8.636;2022-12-20T11:05:01;31.75;;;17.95;;
59434;SDS011;45241;49.768;8.636;2022-12-20T11:10:37;34.17;;;18.80;;
59434;SDS011;45241;49.768;8.636;2022-12-20T11:13:03;36.58;;;18.73;;
59434;SDS011;45241;49.768;8.636;2022-12-20T11:15:32;31.45;;;17.45;;
59434;SDS011;45241;49.768;8.636;2022-12-20T11:18:07;31.38;;;17.25;;
59434;SDS011;45241;49.768;8.636;2022-12-20T11:20:43;32.42;;;16.90;;
59434;SDS011;45241;49.768;8.636;2022-12-20T11:23:20;31.90;;;17.77;;
59434;SDS011;45241;49.768;8.636;2022-12-20T11:34:09;28.55;;;16.83;;
59434;SDS011;45241;49.768;8.636;2022-12-20T11:37:17;24.88;;;14.70;;
59434;SDS011;45241;49.768;8.636;2022-12-20T11:45:35;23.13;;;14.35;;
59434;SDS011;45241;49.768;8.636;2022-12-20T11:51:36;22.05;;;13.13;;
59434;SDS011;45241;49.768;8.636;2022-12-20T11:53:53;21.58;;;13.02;;
59434;SDS011;45241;49.768;8.636;2022-12-20T11:56:37;23.55;;;14.60;;
59434;SDS011;45241;49.768;8.636;2022-12-20T12:02:11;23.00;;;13.80;;
59434;SDS011;45241;49.768;8.636;2022-12-20T12:04:43;25.27;;;14.43;;
59434;SDS011;45241;49.768;8.636;2022-12-20T12:07:26;25.50;;;13.98;;
59434;SDS011;45241;49.768;8.636;2022-12-20T12:12:28;22.45;;;14.15;;
59434;SDS011;45241;49.768;8.636;2022-12-20T12:15:02;21.10;;;13.52;;
59434;SDS011;45241;49.768;8.636;2022-12-20T12:26:06;23.75;;;13.20;;
59434;SDS011;45241;49.768;8.636;2022-12-20T12:28:36;18.50;;;11.52;;
59434;SDS011;45241;49.768;8.636;2022-12-20T12:31:13;22.27;;;12.18;;
59434;SDS011;45241;49.768;8.636;2022-12-20T12:33:45;20.60;;;11.73;;
59434;SDS011;45241;49.768;8.636;2022-12-20T12:47:09;15.52;;;7.82;;
59434;SDS011;45241;49.768;8.636;2022-12-20T12:49:56;8.13;;;5.20;;
59434;SDS011;45241;49.768;8.636;2022-12-20T12:52:28;12.35;;;6.53;;
59434;SDS011;45241;49.768;8.636;2022-12-20T12:55:33;5.75;;;3.17;;
59434;SDS011;45241;49.768;8.636;2022-12-20T12:58:14;5.88;;;3.13;;
59434;SDS011;45241;49.768;8.636;2022-12-20T13:00:58;3.50;;;2.00;;
59434;SDS011;45241;49.768;8.636;2022-12-20T13:03:43;3.40;;;2.13;;
59434;SDS011;45241;49.768;8.636;2022-12-20T13:09:08;4.32;;;1.92;;
59434;SDS011;45241;49.768;8.636;2022-12-20T13:11:49;2.50;;;1.70;;
59434;SDS011;45241;49.768;8.636;2022-12-20T13:16:50;3.00;;;1.73;;
59434;SDS011;45241;49.768;8.636;2022-12-20T13:21:55;4.53;;;1.88;;
59434;SDS011;45241;49.768;8.636;2022-12-20T13:27:16;3.90;;;1.80;;
59434;SDS011;45241;49.768;8.636;2022-12-20T13:29:50;4.55;;;1.77;;
59434;SDS011;45241;49.768;8.636;2022-12-20T13:37:53;4.03;;;1.83;;
59434;SDS011;45241;49.768;8.636;2022-12-20T13:40:37;4.95;;;1.70;;
59434;SDS011;45241;49.768;8.636;2022-12-20T13:43:09;4.38;;;1.85;;
59434;SDS011;45241;49.768;8.636;2022-12-20T13:48:24;3.70;;;1.70;;
59434;SDS011;45241;49.768;8.636;2022-12-20T13:50:53;2.88;;;1.65;;
59434;SDS011;45241;49.768;8.636;2022-12-20T13:53:20;2.88;;;1.70;;
59434;SDS011;45241;49.768;8.636;2022-12-20T13:55:48;3.45;;;1.60;;
59434;SDS011;45241;49.768;8.636;2022-12-20T14:00:48;2.20;;;1.50;;
59434;SDS011;45241;49.768;8.636;2022-12-20T14:03:16;3.47;;;1.80;;
59434;SDS011;45241;49.768;8.636;2022-12-20T14:05:45;3.40;;;2.05;;
59434;SDS011;45241;49.768;8.636;2022-12-20T14:08:15;3.53;;;2.10;;
59434;SDS011;45241;49.768;8.636;2022-12-20T14:10:44;3.83;;;2.00;;
59434;SDS011;45241;49.768;8.636;2022-12-20T14:13:18;4.72;;;1.80;;
59434;SDS011;45241;49.768;8.636;2022-12-20T14:15:48;5.53;;;1.95;;
59434;SDS011;45241;49.768;8.636;2022-12-20T14:18:21;4.35;;;2.05;;
59434;SDS011;45241;49.768;8.636;2022-12-20T14:20:58;2.88;;;1.85;;
59434;SDS011;45241;49.768;8.636;2022-12-20T14:23:26;3.75;;;1.90;;
59434;SDS011;45241;49.768;8.636;2022-12-20T14:26:00;5.32;;;2.13;;
59434;SDS011;45241;49.768;8.636;2022-12-20T14:28:36;3.92;;;1.77;;
59434;SDS011;45241;49.768;8.636;2022-12-20T14:31:04;5.03;;;2.05;;
59434;SDS011;45241;49.768;8.636;2022-12-20T14:33:38;3.40;;;1.77;;
59434;SDS011;45241;49.768;8.636;2022-12-20T14:38:39;3.17;;;1.73;;
59434;SDS011;45241;49.768;8.636;2022-12-20T14:41:23;4.45;;;1.70;;
59434;SDS011;45241;49.768;8.636;2022-12-20T14:43:56;2.80;;;1.90;;
59434;SDS011;45241;49.768;8.636;2022-12-20T14:46:23;3.40;;;1.60;;
59434;SDS011;45241;49.768;8.636;2022-12-20T14:48:49;3.03;;;1.52;;
59434;SDS011;45241;49.768;8.636;2022-12-20T14:51:42;2.42;;;1.48;;
59434;SDS011;45241;49.768;8.636;2022-12-20T14:54:26;3.03;;;1.70;;
59434;SDS011;45241;49.768;8.636;2022-12-20T14:56:52;3.20;;;1.80;;
59434;SDS011;45241;49.768;8.636;2022-12-20T14:59:25;2.90;;;1.73;;
59434;SDS011;45241;49.768;8.636;2022-12-20T15:01:52;3.53;;;1.58;;
59434;SDS011;45241;49.768;8.636;2022-12-20T15:04:20;4.10;;;2.00;;
59434;SDS011;45241;49.768;8.636;2022-12-20T15:06:58;4.10;;;2.13;;
59434;SDS011;45241;49.768;8.636;2022-12-20T15:09:25;3.92;;;1.88;;
59434;SDS011;45241;49.768;8.636;2022-12-20T15:11:51;3.92;;;1.70;;
59434;SDS011;45241;49.768;8.636;2022-12-20T15:16:46;3.25;;;1.90;;
59434;SDS011;45241;49.768;8.636;2022-12-20T15:19:12;4.95;;;1.88;;
59434;SDS011;45241;49.768;8.636;2022-12-20T15:21:41;3.65;;;1.80;;
59434;SDS011;45241;49.768;8.636;2022-12-20T15:24:14;3.53;;;1.75;;
59434;SDS011;45241;49.768;8.636;2022-12-20T15:26:42;2.35;;;1.60;;
59434;SDS011;45241;49.768;8.636;2022-12-20T15:29:26;3.10;;;1.85;;
59434;SDS011;45241;49.768;8.636;2022-12-20T15:31:57;5.43;;;2.10;;
59434;SDS011;45241;49.768;8.636;2022-12-20T15:34:32;5.03;;;2.30;;
59434;SDS011;45241;49.768;8.636;2022-12-20T15:39:26;3.53;;;1.63;;
59434;SDS011;45241;49.768;8.636;2022-12-20T15:41:52;3.63;;;2.15;;
59434;SDS011;45241;49.768;8.636;2022-12-20T15:44:19;3.08;;;1.73;;
59434;SDS011;45241;49.768;8.636;2022-12-20T15:46:46;3.20;;;2.00;;
59434;SDS011;45241;49.768;8.636;2022-12-20T15:49:19;4.03;;;2.00;;
59434;SDS011;45241;49.768;8.636;2022-12-20T15:51:46;3.05;;;2.00;;
59434;SDS011;45241;49.768;8.636;2022-12-20T15:54:24;3.15;;;1.90;;
59434;SDS011;45241;49.768;8.636;2022-12-20T15:56:52;4.05;;;2.70;;
59434;SDS011;45241;49.768;8.636;2022-12-20T15:59:21;3.75;;;2.22;;
59434;SDS011;45241;49.768;8.636;2022-12-20T16:01:46;4.85;;;3.00;;
59434;SDS011;45241;49.768;8.636;2022-12-20T16:04:13;5.05;;;2.38;;
59434;SDS011;45241;49.768;8.636;2022-12-20T16:06:40;7.85;;;3.40;;
59434;SDS011;45241;49.768;8.636;2022-12-20T16:09:07;3.75;;;2.25;;
59434;SDS011;45241;49.768;8.636;2022-12-20T16:11:32;4.82;;;2.63;;
59434;SDS011;45241;49.768;8.636;2022-12-20T16:13:58;3.30;;;2.10;;
59434;SDS011;45241;49.768;8.636;2022-12-20T16:16:25;3.33;;;2.00;;
59434;SDS011;45241;49.768;8.636;2022-12-20T16:18:52;3.08;;;1.50;;
59434;SDS011;45241;49.768;8.636;2022-12-20T16:21:19;4.10;;;1.88;;
59434;SDS011;45241;49.768;8.636;2022-12-20T16:23:46;2.90;;;1.50;;
59434;SDS011;45241;49.768;8.636;2022-12-20T16:26:15;2.83;;;1.60;;
59434;SDS011;45241;49.768;8.636;2022-12-20T16:28:43;2.33;;;1.38;;
59434;SDS011;45241;49.768;8.636;2022-12-20T16:31:10;2.85;;;1.48;;
59434;SDS011;45241;49.768;8.636;2022-12-20T16:33:41;2.47;;;1.52;;
59434;SDS011;45241;49.768;8.636;2022-12-20T16:36:08;3.53;;;1.70;;
59434;SDS011;45241;49.768;8.636;2022-12-20T16:38:35;3.42;;;1.60;;
59434;SDS011;45241;49.768;8.636;2022-12-20T16:41:05;3.75;;;1.48;;
59434;SDS011;45241;49.768;8.636;2022-12-20T16:43:36;2.22;;;1.58;;
59434;SDS011;45241;49.768;8.636;2022-12-20T16:46:02;4.78;;;1.50;;
59434;SDS011;45241;49.768;8.636;2022-12-20T16:48:27;2.30;;;1.70;;
59434;SDS011;45241;49.768;8.636;2022-12-20T16:50:56;3.67;;;1.60;;
59434;SDS011;45241;49.768;8.636;2022-12-20T16:53:22;3.63;;;1.70;;
59434;SDS011;45241;49.768;8.636;2022-12-20T16:55:47;2.97;;;1.73;;
59434;SDS011;45241;49.768;8.636;2022-12-20T16:58:12;3.38;;;2.03;;
59434;SDS011;45241;49.768;8.636;2022-12-20T17:00:38;4.88;;;1.80;;
59434;SDS011;45241;49.768;8.636;2022-12-20T17:03:03;3.20;;;1.63;;
59434;SDS011;45241;49.768;8.636;2022-12-20T17:05:30;4.80;;;1.80;;
59434;SDS011;45241;49.768;8.636;2022-12-20T17:07:56;5.18;;;2.10;;
59434;SDS011;45241;49.768;8.636;2022-12-20T17:10:22;7.95;;;5.03;;
59434;SDS011;45241;49.768;8.636;2022-12-20T17:12:48;6.70;;;3.88;;
59434;SDS011;45241;49.768;8.636;2022-12-20T17:15:24;6.30;;;3.75;;
59434;SDS011;45241;49.768;8.636;2022-12-20T17:17:52;6.28;;;3.08;;
59434;SDS011;45241;49.768;8.636;2022-12-20T17:20:18;4.43;;;2.78;;
59434;SDS011;45241;49.768;8.636;2022-12-20T17:22:49;5.93;;;2.95;;
59434;SDS011;45241;49.768;8.636;2022-12-20T17:25:26;9.07;;;4.57;;
59434;SDS011;45241;49.768;8.636;2022-12-20T17:27:54;8.32;;;4.45;;
59434;SDS011;45241;49.768;8.636;2022-12-20T17:30:20;5.57;;;3.20;;
59434;SDS011;45241;49.768;8.636;2022-12-20T17:32:47;4.60;;;2.47;;
59434;SDS011;45241;49.768;8.636;2022-12-20T17:35:17;2.95;;;1.83;;
59434;SDS011;45241;49.768;8.636;2022-12-20T17:37:45;5.28;;;2.72;;
59434;SDS011;45241;49.768;8.636;2022-12-20T17:40:12;8.48;;;2.30;;
59434;SDS011;45241;49.768;8.636;2022-12-20T17:42:39;6.15;;;3.67;;
59434;SDS011;45241;49.768;8.636;2022-12-20T17:45:04;4.82;;;2.20;;
59434;SDS011;45241;49.768;8.636;2022-12-20T17:47:30;3.80;;;2.08;;
59434;SDS011;45241;49.768;8.636;2022-12-20T17:49:55;3.25;;;1.98;;
59434;SDS011;45241;49.768;8.636;2022-12-20T17:52:20;2.25;;;1.85;;
59434;SDS011;45241;49.768;8.636;2022-12-20T17:54:46;2.65;;;1.67;;
59434;SDS011;45241;49.768;8.636;2022-12-20T17:57:14;5.50;;;1.75;;
59434;SDS011;45241;49.768;8.636;2022-12-20T17:59:40;2.28;;;1.90;;
59434;SDS011;45241;49.768;8.636;2022-12-20T18:02:16;3.70;;;1.90;;
59434;SDS011;45241;49.768;8.636;2022-12-20T18:04:43;2.88;;;2.03;;
59434;SDS011;45241;49.768;8.636;2022-12-20T18:07:08;5.18;;;2.17;;
59434;SDS011;45241;49.768;8.636;2022-12-20T18:09:34;4.18;;;2.30;;
59434;SDS011;45241;49.768;8.636;2022-12-20T18:11:59;3.08;;;2.00;;
59434;SDS011;45241;49.768;8.636;2022-12-20T18:14:24;3.63;;;2.10;;
59434;SDS011;45241;49.768;8.636;2022-12-20T18:16:50;4.88;;;2.50;;
59434;SDS011;45241;49.768;8.636;2022-12-20T18:19:15;5.30;;;2.60;;
59434;SDS011;45241;49.768;8.636;2022-12-20T18:21:42;3.50;;;1.98;;
59434;SDS011;45241;49.768;8.636;2022-12-20T18:24:11;3.40;;;2.08;;
59434;SDS011;45241;49.768;8.636;2022-12-20T18:26:38;4.20;;;2.50;;
59434;SDS011;45241;49.768;8.636;2022-12-20T18:29:03;5.40;;;2.40;;
59434;SDS011;45241;49.768;8.636;2022-12-20T18:31:30;4.95;;;2.38;;
59434;SDS011;45241;49.768;8.636;2022-12-20T18:33:57;4.18;;;2.33;;
59434;SDS011;45241;49.768;8.636;2022-12-20T18:36:25;4.40;;;2.50;;
59434;SDS011;45241;49.768;8.636;2022-12-20T18:38:55;5.72;;;2.47;;
59434;SDS011;45241;49.768;8.636;2022-12-20T18:41:23;5.93;;;2.30;;
59434;SDS011;45241;49.768;8.636;2022-12-20T18:43:51;5.30;;;2.63;;
59434;SDS011;45241;49.768;8.636;2022-12-20T18:46:20;5.05;;;2.65;;
59434;SDS011;45241;49.768;8.636;2022-12-20T18:48:50;4.97;;;2.50;;
59434;SDS011;45241;49.768;8.636;2022-12-20T18:51:20;4.38;;;2.58;;
59434;SDS011;45241;49.768;8.636;2022-12-20T18:53:48;3.47;;;2.35;;
59434;SDS011;45241;49.768;8.636;2022-12-20T18:56:16;5.95;;;3.10;;
59434;SDS011;45241;49.768;8.636;2022-12-20T18:58:44;8.23;;;3.00;;
59434;SDS011;45241;49.768;8.636;2022-12-20T19:01:12;4.25;;;2.72;;
59434;SDS011;45241;49.768;8.636;2022-12-20T19:03:42;4.28;;;3.00;;
59434;SDS011;45241;49.768;8.636;2022-12-20T19:06:08;4.57;;;2.75;;
59434;SDS011;45241;49.768;8.636;2022-12-20T19:08:34;3.95;;;2.85;;
59434;SDS011;45241;49.768;8.636;2022-12-20T19:11:08;5.30;;;2.90;;
59434;SDS011;45241;49.768;8.636;2022-12-20T19:13:35;5.00;;;2.70;;
59434;SDS011;45241;49.768;8.636;2022-12-20T19:16:02;5.05;;;2.67;;
59434;SDS011;45241;49.768;8.636;2022-12-20T19:18:28;3.90;;;2.35;;
59434;SDS011;45241;49.768;8.636;2022-12-20T19:20:54;5.57;;;2.50;;
59434;SDS011;45241;49.768;8.636;2022-12-20T19:23:19;3.63;;;2.50;;
59434;SDS011;45241;49.768;8.636;2022-12-20T19:25:46;4.32;;;2.70;;
59434;SDS011;45241;49.768;8.636;2022-12-20T19:28:12;6.20;;;2.90;;
59434;SDS011;45241;49.768;8.636;2022-12-20T19:30:37;4.60;;;2.70;;
59434;SDS011;45241;49.768;8.636;2022-12-20T19:33:02;5.47;;;3.00;;
59434;SDS011;45241;49.768;8.636;2022-12-20T19:35:28;6.60;;;2.80;;
59434;SDS011;45241;49.768;8.636;2022-12-20T19:37:54;9.20;;;2.97;;
59434;SDS011;45241;49.768;8.636;2022-12-20T19:40:20;5.22;;;3.03;;
59434;SDS011;45241;49.768;8.636;2022-12-20T19:42:45;6.35;;;3.38;;
59434;SDS011;45241;49.768;8.636;2022-12-20T19:45:11;6.35;;;3.35;;
59434;SDS011;45241;49.768;8.636;2022-12-20T19:47:36;7.07;;;3.10;;
59434;SDS011;45241;49.768;8.636;2022-12-20T19:50:01;5.47;;;3.38;;
59434;SDS011;45241;49.768;8.636;2022-12-20T19:52:29;6.82;;;3.10;;
59434;SDS011;45241;49.768;8.636;2022-12-20T19:54:55;5.97;;;3.17;;
59434;SDS011;45241;49.768;8.636;2022-12-20T19:57:21;6.28;;;3.10;;
59434;SDS011;45241;49.768;8.636;2022-12-20T19:59:46;6.57;;;3.20;;
59434;SDS011;45241;49.768;8.636;2022-12-20T20:02:12;5.60;;;3.20;;
59434;SDS011;45241;49.768;8.636;2022-12-20T20:04:38;6.93;;;3.65;;
59434;SDS011;45241;49.768;8.636;2022-12-20T20:07:04;6.75;;;3.40;;
59434;SDS011;45241;49.768;8.636;2022-12-20T20:09:29;7.15;;;4.07;;
59434;SDS011;45241;49.768;8.636;2022-12-20T20:11:54;6.68;;;4.03;;
59434;SDS011;45241;49.768;8.636;2022-12-20T20:14:20;6.32;;;3.83;;
59434;SDS011;45241;49.768;8.636;2022-12-20T20:16:45;6.82;;;4.07;;
59434;SDS011;45241;49.768;8.636;2022-12-20T20:19:11;5.82;;;4.03;;
59434;SDS011;45241;49.768;8.636;2022-12-20T20:21:36;7.70;;;4.30;;
59434;SDS011;45241;49.768;8.636;2022-12-20T20:24:02;6.82;;;4.18;;
59434;SDS011;45241;49.768;8.636;2022-12-20T20:26:28;8.35;;;4.22;;
59434;SDS011;45241;49.768;8.636;2022-12-20T20:28:55;8.38;;;4.53;;
59434;SDS011;45241;49.768;8.636;2022-12-20T20:31:21;6.28;;;4.30;;
59434;SDS011;45241;49.768;8.636;2022-12-20T20:33:47;6.82;;;4.07;;
59434;SDS011;45241;49.768;8.636;2022-12-20T20:36:14;7.07;;;4.25;;
59434;SDS011;45241;49.768;8.636;2022-12-20T20:38:44;5.72;;;3.75;;
59434;SDS011;45241;49.768;8.636;2022-12-20T20:41:09;8.93;;;4.22;;
59434;SDS011;45241;49.768;8.636;2022-12-20T20:43:35;7.05;;;4.38;;
59434;SDS011;45241;49.768;8.636;2022-12-20T20:46:01;7.38;;;4.00;;
59434;SDS011;45241;49.768;8.636;2022-12-20T20:48:27;6.85;;;4.15;;
59434;SDS011;45241;49.768;8.636;2022-12-20T20:50:52;7.50;;;3.90;;
59434;SDS011;45241;49.768;8.636;2022-12-20T20:53:18;6.72;;;3.78;;
59434;SDS011;45241;49.768;8.636;2022-12-20T20:55:43;7.32;;;4.00;;
59434;SDS011;45241;49.768;8.636;2022-12-20T20:58:09;7.45;;;3.70;;
59434;SDS011;45241;49.768;8.636;2022-12-20T21:00:34;5.50;;;3.78;;
59434;SDS011;45241;49.768;8.636;2022-12-20T21:02:59;6.57;;;3.85;;
59434;SDS011;45241;49.768;8.636;2022-12-20T21:05:25;5.88;;;3.63;;
59434;SDS011;45241;49.768;8.636;2022-12-20T21:07:51;5.32;;;3.53;;
59434;SDS011;45241;49.768;8.636;2022-12-20T21:10:17;7.15;;;3.42;;
59434;SDS011;45241;49.768;8.636;2022-12-20T21:12:42;6.32;;;3.38;;
59434;SDS011;45241;49.768;8.636;2022-12-20T21:15:08;6.18;;;3.60;;
59434;SDS011;45241;49.768;8.636;2022-12-20T21:17:33;5.85;;;3.78;;
59434;SDS011;45241;49.768;8.636;2022-12-20T21:19:59;6.80;;;3.50;;
59434;SDS011;45241;49.768;8.636;2022-12-20T21:22:24;6.70;;;3.40;;
59434;SDS011;45241;49.768;8.636;2022-12-20T21:24:50;5.90;;;3.60;;
59434;SDS011;45241;49.768;8.636;2022-12-20T21:27:15;7.03;;;3.80;;
59434;SDS011;45241;49.768;8.636;2022-12-20T21:29:41;7.15;;;3.70;;
59434;SDS011;45241;49.768;8.636;2022-12-20T21:32:06;7.55;;;3.72;;
59434;SDS011;45241;49.768;8.636;2022-12-20T21:34:32;6.93;;;3.60;;
59434;SDS011;45241;49.768;8.636;2022-12-20T21:36:57;6.90;;;3.50;;
59434;SDS011;45241;49.768;8.636;2022-12-20T21:39:22;6.40;;;3.42;;
59434;SDS011;45241;49.768;8.636;2022-12-20T21:41:48;5.95;;;3.42;;
59434;SDS011;45241;49.768;8.636;2022-12-20T21:44:14;4.65;;;3.47;;
59434;SDS011;45241;49.768;8.636;2022-12-20T21:46:39;9.70;;;3.92;;
59434;SDS011;45241;49.768;8.636;2022-12-20T21:49:05;5.68;;;3.33;;
59434;SDS011;45241;49.768;8.636;2022-12-20T21:51:30;9.38;;;3.72;;
59434;SDS011;45241;49.768;8.636;2022-12-20T21:53:56;7.00;;;3.17;;
59434;SDS011;45241;49.768;8.636;2022-12-20T21:56:23;6.88;;;3.47;;
59434;SDS011;45241;49.768;8.636;2022-12-20T21:58:50;6.40;;;3.30;;
59434;SDS011;45241;49.768;8.636;2022-12-20T22:01:18;6.60;;;3.55;;
59434;SDS011;45241;49.768;8.636;2022-12-20T22:03:48;6.85;;;3.15;;
59434;SDS011;45241;49.768;8.636;2022-12-20T22:06:15;6.78;;;3.35;;
59434;SDS011;45241;49.768;8.636;2022-12-20T22:08:41;7.40;;;3.75;;
59434;SDS011;45241;49.768;8.636;2022-12-20T22:11:07;5.88;;;3.42;;
59434;SDS011;45241;49.768;8.636;2022-12-20T22:13:35;7.70;;;3.78;;
59434;SDS011;45241;49.768;8.636;2022-12-20T22:16:11;5.50;;;3.22;;
59434;SDS011;45241;49.768;8.636;2022-12-20T22:18:42;3.90;;;2.80;;
59434;SDS011;45241;49.768;8.636;2022-12-20T22:21:09;4.63;;;3.20;;
59434;SDS011;45241;49.768;8.636;2022-12-20T22:23:36;4.82;;;2.97;;
59434;SDS011;45241;49.768;8.636;2022-12-20T22:26:06;5.82;;;3.13;;
59434;SDS011;45241;49.768;8.636;2022-12-20T22:28:37;5.55;;;3.03;;
59434;SDS011;45241;49.768;8.636;2022-12-20T22:31:07;5.28;;;2.83;;
59434;SDS011;45241;49.768;8.636;2022-12-20T22:33:33;4.72;;;2.80;;
59434;SDS011;45241;49.768;8.636;2022-12-20T22:35:59;5.00;;;2.83;;
59434;SDS011;45241;49.768;8.636;2022-12-20T22:38:24;3.65;;;2.38;;
59434;SDS011;45241;49.768;8.636;2022-12-20T22:40:50;4.30;;;2.83;;
59434;SDS011;45241;49.768;8.636;2022-12-20T22:43:19;4.63;;;2.72;;
59434;SDS011;45241;49.768;8.636;2022-12-20T22:45:53;6.20;;;3.13;;
59434;SDS011;45241;49.768;8.636;2022-12-20T22:48:21;2.75;;;2.42;;
59434;SDS011;45241;49.768;8.636;2022-12-20T22:50:46;6.07;;;2.92;;
59434;SDS011;45241;49.768;8.636;2022-12-20T22:53:12;3.92;;;2.83;;
59434;SDS011;45241;49.768;8.636;2022-12-20T22:55:37;6.85;;;3.20;;
59434;SDS011;45241;49.768;8.636;2022-12-20T22:58:02;5.72;;;3.47;;
59434;SDS011;45241;49.768;8.636;2022-12-20T23:00:28;5.82;;;3.03;;
59434;SDS011;45241;49.768;8.636;2022-12-20T23:02:53;5.22;;;2.95;;
59434;SDS011;45241;49.768;8.636;2022-12-20T23:05:18;5.70;;;3.40;;
59434;SDS011;45241;49.768;8.636;2022-12-20T23:07:44;6.90;;;3.28;;
59434;SDS011;45241;49.768;8.636;2022-12-20T23:10:09;4.90;;;3.25;;
59434;SDS011;45241;49.768;8.636;2022-12-20T23:12:54;5.13;;;3.20;;
59434;SDS011;45241;49.768;8.636;2022-12-20T23:15:38;6.05;;;3.50;;
59434;SDS011;45241;49.768;8.636;2022-12-20T23:18:04;5.85;;;3.17;;
59434;SDS011;45241;49.768;8.636;2022-12-20T23:20:29;5.10;;;3.08;;
59434;SDS011;45241;49.768;8.636;2022-12-20T23:23:13;6.38;;;3.00;;
59434;SDS011;45241;49.768;8.636;2022-12-20T23:25:38;4.88;;;2.90;;
59434;SDS011;45241;49.768;8.636;2022-12-20T23:28:04;4.22;;;3.10;;
59434;SDS011;45241;49.768;8.636;2022-12-20T23:30:29;5.60;;;3.03;;
59434;SDS011;45241;49.768;8.636;2022-12-20T23:32:54;7.75;;;3.30;;
59434;SDS011;45241;49.768;8.636;2022-12-20T23:35:20;6.72;;;3.92;;
59434;SDS011;45241;49.768;8.636;2022-12-20T23:37:46;8.35;;;3.45;;
59434;SDS011;45241;49.768;8.636;2022-12-20T23:40:12;6.35;;;3.38;;
59434;SDS011;45241;49.768;8.636;2022-12-20T23:42:40;7.50;;;3.75;;
59434;SDS011;45241;49.768;8.636;2022-12-20T23:45:05;5.10;;;3.25;;
59434;SDS011;45241;49.768;8.636;2022-12-20T23:47:31;6.30;;;4.00;;
59434;SDS011;45241;49.768;8.636;2022-12-20T23:49:56;4.05;;;3.30;;
59434;SDS011;45241;49.768;8.636;2022-12-20T23:52:22;8.82;;;4.10;;
59434;SDS011;45241;49.768;8.636;2022-12-20T23:54:47;7.40;;;3.50;;
59434;SDS011;45241;49.768;8.636;2022-12-20T23:57:12;7.85;;;3.55;;
59434;SDS011;45241;49.768;8.636;2022-12-20T23:59:38;7.20;;;3.60;;
